createdAt,value
2022-11-03T00:01:07.988Z,9.50
2022-11-03T00:03:55.774Z,9.40
2022-11-03T00:06:44.719Z,9.40
2022-11-03T00:09:33.833Z,9.40
2022-11-03T00:12:21.532Z,9.40
2022-11-03T00:15:09.674Z,9.40
2022-11-03T00:17:57.341Z,9.40
2022-11-03T00:20:45.057Z,9.40
2022-11-03T00:23:33.826Z,9.30
2022-11-03T00:26:23.499Z,9.30
2022-11-03T00:29:11.850Z,9.40
2022-11-03T00:31:59.588Z,9.40
2022-11-03T00:34:47.334Z,9.40
2022-11-03T00:37:35.011Z,9.40
2022-11-03T00:40:22.759Z,9.40
2022-11-03T00:43:11.828Z,9.50
2022-11-03T00:45:59.599Z,9.50
2022-11-03T00:48:47.371Z,9.50
2022-11-03T00:51:36.071Z,9.50
2022-11-03T00:54:23.867Z,9.50
2022-11-03T00:57:11.572Z,9.50
2022-11-03T01:00:00.640Z,9.50
2022-11-03T01:02:48.322Z,9.50
2022-11-03T01:05:53.790Z,9.60
2022-11-03T01:08:41.489Z,9.50
2022-11-03T01:11:48.062Z,9.50
2022-11-03T01:14:36.864Z,9.50
2022-11-03T01:17:27.072Z,9.50
2022-11-03T01:20:14.860Z,9.50
2022-11-03T01:23:02.559Z,9.40
2022-11-03T01:25:50.277Z,9.40
2022-11-03T01:28:38.615Z,9.40
2022-11-03T01:31:26.697Z,9.40
2022-11-03T01:34:16.946Z,9.40
2022-11-03T01:37:04.921Z,9.40
2022-11-03T01:39:52.648Z,9.50
2022-11-03T01:42:40.359Z,9.40
2022-11-03T01:45:28.072Z,9.50
2022-11-03T01:48:16.133Z,9.50
2022-11-03T01:51:06.506Z,9.50
2022-11-03T01:53:55.412Z,9.50
2022-11-03T01:56:46.857Z,9.50
2022-11-03T01:59:35.203Z,9.40
2022-11-03T02:02:22.959Z,9.50
2022-11-03T02:05:11.592Z,9.50
2022-11-03T02:08:02.953Z,9.50
2022-11-03T02:10:52.078Z,9.50
2022-11-03T02:13:39.785Z,9.50
2022-11-03T02:16:28.315Z,9.50
2022-11-03T02:19:20.580Z,9.50
2022-11-03T02:22:15.608Z,9.50
2022-11-03T02:25:09.396Z,9.60
2022-11-03T02:27:58.840Z,9.60
2022-11-03T02:30:48.557Z,9.60
2022-11-03T02:33:44.474Z,9.60
2022-11-03T02:36:34.536Z,9.60
2022-11-03T02:39:23.986Z,9.70
2022-11-03T02:42:13.171Z,9.70
2022-11-03T02:45:04.594Z,9.60
2022-11-03T02:47:54.038Z,9.70
2022-11-03T02:50:42.454Z,9.60
2022-11-03T02:53:31.359Z,9.60
2022-11-03T02:56:21.405Z,9.60
2022-11-03T02:59:11.124Z,9.60
2022-11-03T03:02:04.647Z,9.60
2022-11-03T03:04:55.858Z,9.50
2022-11-03T03:07:47.136Z,9.50
2022-11-03T03:10:35.991Z,9.50
2022-11-03T03:13:24.986Z,9.50
2022-11-03T03:16:13.634Z,9.40
2022-11-03T03:19:05.262Z,9.40
2022-11-03T03:21:54.233Z,9.40
2022-11-03T03:24:46.570Z,9.40
2022-11-03T03:27:35.363Z,9.40
2022-11-03T03:30:23.433Z,9.40
2022-11-03T03:33:12.004Z,9.30
2022-11-03T03:36:02.592Z,9.30
2022-11-03T03:38:52.279Z,9.30
2022-11-03T03:41:40.892Z,9.30
2022-11-03T03:44:28.982Z,9.20
2022-11-03T03:47:19.897Z,9.20
2022-11-03T03:50:07.946Z,9.20
2022-11-03T03:52:58.363Z,9.10
2022-11-03T03:55:47.624Z,9.10
2022-11-03T03:58:35.407Z,9.00
2022-11-03T04:01:23.276Z,9.00
2022-11-03T04:04:11.153Z,9.10
2022-11-03T04:07:12.850Z,9.10
2022-11-03T04:10:01.997Z,9.00
2022-11-03T04:13:07.349Z,9.10
2022-11-03T04:16:12.857Z,9.00
2022-11-03T04:19:18.233Z,9.00
2022-11-03T04:22:18.113Z,9.00
2022-11-03T04:25:07.841Z,9.10
2022-11-03T04:27:55.618Z,9.10
2022-11-03T04:30:43.386Z,9.10
2022-11-03T04:33:31.110Z,9.10
2022-11-03T04:36:20.028Z,9.10
2022-11-03T04:39:15.728Z,9.10
2022-11-03T04:42:05.790Z,9.10
2022-11-03T04:44:53.553Z,9.10
2022-11-03T04:47:41.309Z,9.10
2022-11-03T04:50:29.228Z,9.10
2022-11-03T04:53:18.152Z,9.10
2022-11-03T04:56:13.951Z,9.10
2022-11-03T04:59:03.680Z,9.10
2022-11-03T05:01:51.488Z,9.00
2022-11-03T05:04:39.565Z,9.10
2022-11-03T05:07:30.131Z,9.00
2022-11-03T05:10:19.770Z,9.00
2022-11-03T05:13:10.998Z,9.00
2022-11-03T05:16:02.172Z,9.00
2022-11-03T05:18:50.830Z,9.00
2022-11-03T05:21:38.643Z,9.00
2022-11-03T05:24:26.815Z,9.00
2022-11-03T05:27:17.302Z,8.90
2022-11-03T05:30:05.328Z,8.90
2022-11-03T05:32:54.402Z,8.90
2022-11-03T05:35:42.133Z,8.90
2022-11-03T05:38:31.460Z,8.90
2022-11-03T05:41:22.125Z,8.80
2022-11-03T05:44:17.551Z,8.90
2022-11-03T05:47:10.092Z,8.80
2022-11-03T05:50:01.393Z,8.90
2022-11-03T05:52:49.877Z,8.90
2022-11-03T05:55:38.167Z,8.90
2022-11-03T05:58:27.814Z,8.80
2022-11-03T06:01:19.831Z,8.90
2022-11-03T06:04:15.309Z,8.90
2022-11-03T06:07:05.540Z,8.90
2022-11-03T06:09:53.468Z,8.90
2022-11-03T06:12:44.258Z,8.90
2022-11-03T06:15:35.685Z,8.80
2022-11-03T06:18:24.297Z,8.80
2022-11-03T06:21:14.131Z,8.80
2022-11-03T06:24:03.172Z,8.80
2022-11-03T06:26:51.852Z,8.80
2022-11-03T06:29:39.565Z,8.80
2022-11-03T06:32:27.807Z,8.80
2022-11-03T06:35:15.941Z,8.80
2022-11-03T06:38:03.906Z,8.90
2022-11-03T06:40:53.612Z,8.90
2022-11-03T06:43:41.975Z,8.90
2022-11-03T06:46:31.406Z,8.90
2022-11-03T06:49:26.245Z,8.90
2022-11-03T06:52:20.039Z,8.80
2022-11-03T06:55:23.385Z,8.80
2022-11-03T06:58:16.239Z,8.80
2022-11-03T07:01:05.097Z,8.80
2022-11-03T07:03:53.872Z,8.80
2022-11-03T07:06:41.924Z,8.80
2022-11-03T07:09:29.703Z,8.80
2022-11-03T07:12:18.437Z,8.80
2022-11-03T07:15:17.513Z,8.80
2022-11-03T07:18:06.369Z,8.80
2022-11-03T07:20:55.126Z,8.90
2022-11-03T07:23:44.794Z,8.90
2022-11-03T07:26:35.536Z,9.00
2022-11-03T07:29:24.455Z,8.90
2022-11-03T07:32:15.965Z,9.00
2022-11-03T07:35:05.852Z,9.00
2022-11-03T07:37:54.449Z,9.10
2022-11-03T07:40:42.576Z,9.10
2022-11-03T07:43:32.370Z,9.10
2022-11-03T07:46:21.448Z,9.10
2022-11-03T07:49:17.356Z,9.20
2022-11-03T07:52:09.601Z,9.20
2022-11-03T07:54:57.923Z,9.30
2022-11-03T07:57:45.659Z,9.30
2022-11-03T08:00:33.412Z,9.40
2022-11-03T08:03:26.240Z,9.40
2022-11-03T08:06:18.763Z,9.50
2022-11-03T08:09:07.810Z,9.60
2022-11-03T08:11:55.561Z,9.70
2022-11-03T08:14:43.381Z,9.70
2022-11-03T08:17:31.148Z,9.90
2022-11-03T08:20:18.855Z,10.00
2022-11-03T08:26:16.055Z,10.20
2022-11-03T08:29:04.012Z,10.30
2022-11-03T08:31:51.738Z,10.30
2022-11-03T08:34:39.452Z,10.30
2022-11-03T08:37:27.196Z,10.30
2022-11-03T08:40:16.458Z,10.30
2022-11-03T08:43:04.925Z,10.40
2022-11-03T08:45:53.689Z,10.40
2022-11-03T08:48:41.520Z,10.40
2022-11-03T08:51:29.355Z,10.30
2022-11-03T08:54:17.091Z,10.30
2022-11-03T08:57:06.542Z,10.30
2022-11-03T08:59:54.968Z,10.40
2022-11-03T09:02:42.722Z,10.40
2022-11-03T09:05:30.633Z,10.40
2022-11-03T09:11:26.205Z,10.50
2022-11-03T09:14:15.282Z,10.70
2022-11-03T09:19:55.696Z,10.90
2022-11-03T09:22:43.452Z,11.10
2022-11-03T09:25:31.240Z,11.20
2022-11-03T09:28:19.124Z,11.30
2022-11-03T09:31:08.229Z,11.40
2022-11-03T09:33:56.067Z,11.50
2022-11-03T09:36:45.277Z,11.60
2022-11-03T09:39:35.068Z,11.60
2022-11-03T09:42:23.223Z,11.70
2022-11-03T09:45:11.578Z,11.90
2022-11-03T09:48:00.646Z,12.00
2022-11-03T09:50:50.483Z,12.10
2022-11-03T09:53:38.404Z,12.10
2022-11-03T09:56:26.533Z,12.20
2022-11-03T09:59:15.744Z,12.30
2022-11-03T10:02:03.604Z,12.30
2022-11-03T10:04:53.694Z,12.30
2022-11-03T10:07:42.834Z,12.40
2022-11-03T10:10:30.935Z,12.50
2022-11-03T10:13:22.399Z,12.50
2022-11-03T10:16:11.785Z,12.60
2022-11-03T10:19:00.523Z,12.70
2022-11-03T10:21:49.582Z,12.80
2022-11-03T10:24:37.744Z,12.80
2022-11-03T10:27:26.332Z,12.80
2022-11-03T10:30:14.133Z,12.80
2022-11-03T10:33:01.849Z,12.90
2022-11-03T10:35:49.556Z,12.90
2022-11-03T10:38:38.614Z,12.90
2022-11-03T10:41:27.200Z,12.90
2022-11-03T10:44:19.519Z,12.90
2022-11-03T10:47:07.664Z,12.90
2022-11-03T10:49:56.165Z,12.90
2022-11-03T10:52:43.895Z,13.00
2022-11-03T10:55:32.991Z,13.10
2022-11-03T10:58:20.771Z,13.20
2022-11-03T11:01:10.434Z,13.30
2022-11-03T11:03:58.708Z,13.30
2022-11-03T11:06:47.083Z,13.30
2022-11-03T11:09:34.850Z,13.40
2022-11-03T11:12:25.078Z,13.40
2022-11-03T11:15:27.705Z,13.40
2022-11-03T11:18:43.078Z,13.40
2022-11-03T11:21:49.547Z,13.40
2022-11-03T11:24:56.018Z,13.50
2022-11-03T11:28:07.763Z,13.50
2022-11-03T11:30:59.948Z,13.60
2022-11-03T11:33:47.664Z,13.70
2022-11-03T11:36:35.965Z,13.70
2022-11-03T11:39:44.666Z,13.70
2022-11-03T11:42:34.954Z,13.70
2022-11-03T11:45:40.466Z,13.70
2022-11-03T11:48:29.633Z,13.60
2022-11-03T11:51:17.398Z,13.70
2022-11-03T11:54:17.436Z,13.70
2022-11-03T11:57:18.477Z,13.70
2022-11-03T12:00:09.795Z,13.70
2022-11-03T12:02:57.962Z,13.70
2022-11-03T12:05:50.295Z,13.70
2022-11-03T12:08:38.272Z,13.80
2022-11-03T12:11:45.705Z,13.80
2022-11-03T12:14:35.477Z,13.80
2022-11-03T12:17:32.755Z,13.80
2022-11-03T12:20:36.649Z,13.80
2022-11-03T12:23:39.874Z,13.80
2022-11-03T12:26:41.425Z,13.90
2022-11-03T12:29:29.194Z,13.80
2022-11-03T12:32:32.422Z,13.80
2022-11-03T12:35:22.060Z,13.80
2022-11-03T12:38:09.817Z,13.80
2022-11-03T12:41:18.874Z,13.80
2022-11-03T12:44:06.755Z,13.80
2022-11-03T12:46:54.554Z,13.80
2022-11-03T12:49:42.296Z,13.80
2022-11-03T12:52:30.068Z,13.80
2022-11-03T12:55:17.915Z,13.80
2022-11-03T12:58:07.291Z,13.90
2022-11-03T13:00:57.593Z,13.80
2022-11-03T13:03:49.357Z,13.80
2022-11-03T13:06:37.141Z,13.80
2022-11-03T13:09:27.834Z,13.80
2022-11-03T13:12:33.872Z,13.90
2022-11-03T13:15:22.973Z,13.80
2022-11-03T13:18:13.726Z,13.90
2022-11-03T13:21:02.062Z,14.00
2022-11-03T13:23:49.988Z,14.10
2022-11-03T13:26:37.877Z,14.30
2022-11-03T13:29:25.613Z,14.40
2022-11-03T13:32:14.676Z,14.30
2022-11-03T13:35:02.457Z,14.40
2022-11-03T13:37:50.298Z,14.40
2022-11-03T13:43:45.824Z,14.30
2022-11-03T13:46:33.529Z,14.30
2022-11-03T13:49:59.347Z,14.20
2022-11-03T13:52:30.579Z,14.20
2022-11-03T14:01:34.406Z,14.10
2022-11-03T14:07:31.642Z,14.10
2022-11-03T14:10:19.399Z,14.00
2022-11-03T14:13:07.622Z,14.00
2022-11-03T14:15:56.556Z,14.00
2022-11-03T14:18:44.329Z,14.00
2022-11-03T14:21:33.600Z,13.90
2022-11-03T14:24:21.336Z,13.90
2022-11-03T14:27:09.069Z,13.90
2022-11-03T14:29:56.797Z,13.80
2022-11-03T14:32:44.544Z,13.80
2022-11-03T14:35:32.250Z,13.80
2022-11-03T14:38:21.328Z,13.80
2022-11-03T14:41:26.804Z,13.70
2022-11-03T14:44:14.750Z,13.70
2022-11-03T14:47:03.104Z,13.70
2022-11-03T14:49:50.806Z,13.60
2022-11-03T14:52:38.571Z,13.60
2022-11-03T14:55:30.792Z,13.60
2022-11-03T14:58:18.526Z,13.60
2022-11-03T15:01:06.550Z,13.60
2022-11-03T15:03:54.289Z,13.50
2022-11-03T15:06:42.473Z,13.50
2022-11-03T15:09:30.241Z,13.40
2022-11-03T15:12:19.290Z,13.40
2022-11-03T15:15:07.518Z,13.30
2022-11-03T15:18:00.146Z,13.30
2022-11-03T15:20:50.285Z,13.30
2022-11-03T15:26:46.070Z,13.30
2022-11-03T15:29:35.955Z,13.20
2022-11-03T15:32:23.689Z,13.20
2022-11-03T15:35:11.497Z,13.20
2022-11-03T15:37:59.384Z,13.10
2022-11-03T15:40:47.245Z,13.10
2022-11-03T15:43:35.020Z,13.10
2022-11-03T15:46:24.086Z,13.10
2022-11-03T15:49:11.822Z,13.10
2022-11-03T15:51:59.536Z,13.10
2022-11-03T15:54:48.625Z,13.10
2022-11-03T15:57:36.304Z,13.00
2022-11-03T16:00:24.028Z,13.00
2022-11-03T16:03:13.192Z,13.00
2022-11-03T16:06:00.992Z,13.00
2022-11-03T16:08:48.686Z,13.00
2022-11-03T16:11:36.409Z,12.90
2022-11-03T16:14:24.195Z,13.00
2022-11-03T16:17:11.916Z,12.90
2022-11-03T16:20:00.983Z,12.90
2022-11-03T16:22:48.857Z,12.90
2022-11-03T16:25:36.668Z,12.90
2022-11-03T16:28:24.489Z,12.80
2022-11-03T16:31:12.209Z,12.90
2022-11-03T16:34:00.178Z,12.80
2022-11-03T16:36:49.292Z,12.80
2022-11-03T16:39:39.054Z,12.80
2022-11-03T16:42:26.768Z,12.80
2022-11-03T16:45:19.228Z,12.80
2022-11-03T16:48:07.957Z,12.80
2022-11-03T16:50:57.858Z,12.80
2022-11-03T16:53:47.094Z,12.70
2022-11-03T16:56:34.812Z,12.70
2022-11-03T16:59:26.907Z,12.60
2022-11-03T17:02:16.623Z,12.70
2022-11-03T17:05:05.533Z,12.70
2022-11-03T17:07:54.319Z,12.70
2022-11-03T17:10:43.786Z,12.70
2022-11-03T17:13:31.601Z,12.70
2022-11-03T17:16:19.321Z,12.70
2022-11-03T17:19:07.074Z,12.60
2022-11-03T17:21:54.965Z,12.60
2022-11-03T17:24:42.710Z,12.50
2022-11-03T17:27:33.872Z,12.50
2022-11-03T17:30:22.528Z,12.50
2022-11-03T17:33:13.834Z,12.50
2022-11-03T17:36:02.217Z,12.50
2022-11-03T17:38:50.597Z,12.50
2022-11-03T17:41:38.399Z,12.50
2022-11-03T17:44:27.454Z,12.50
2022-11-03T17:47:15.646Z,12.50
2022-11-03T17:50:03.364Z,12.40
2022-11-03T17:52:52.089Z,12.40
2022-11-03T17:55:40.738Z,12.40
2022-11-03T17:58:29.585Z,12.40
2022-11-03T18:01:21.081Z,12.40
2022-11-03T18:04:12.249Z,12.30
2022-11-03T18:07:00.949Z,12.40
2022-11-03T18:09:48.682Z,12.30
2022-11-03T18:13:10.183Z,12.30
2022-11-03T18:16:01.394Z,12.30
2022-11-03T18:18:50.560Z,12.30
2022-11-03T18:21:38.988Z,12.30
2022-11-03T18:24:27.955Z,12.30
2022-11-03T18:27:16.003Z,12.30
2022-11-03T18:30:03.916Z,12.30
2022-11-03T18:32:51.675Z,12.20
2022-11-03T18:35:40.775Z,12.20
2022-11-03T18:38:28.862Z,12.20
2022-11-03T18:41:35.201Z,12.20
2022-11-03T18:44:24.050Z,12.20
2022-11-03T18:47:11.817Z,12.10
2022-11-03T18:49:59.687Z,12.10
2022-11-03T18:52:51.842Z,12.10
2022-11-03T18:55:39.630Z,12.10
2022-11-03T18:58:27.486Z,12.10
2022-11-03T19:01:21.052Z,12.10
2022-11-03T19:04:14.832Z,12.10
2022-11-03T19:07:03.673Z,12.10
2022-11-03T19:09:52.945Z,12.10
2022-11-03T19:12:43.204Z,12.10
2022-11-03T19:15:31.176Z,12.10
2022-11-03T19:18:18.909Z,12.10
2022-11-03T19:21:10.054Z,12.10
2022-11-03T19:23:58.645Z,12.10
2022-11-03T19:26:51.188Z,12.10
2022-11-03T19:29:40.756Z,12.10
2022-11-03T19:32:29.900Z,12.10
2022-11-03T19:35:20.309Z,12.10
2022-11-03T19:38:11.687Z,12.10
2022-11-03T19:41:17.015Z,12.10
2022-11-03T19:44:10.097Z,12.20
2022-11-03T19:46:57.794Z,12.10
2022-11-03T19:49:45.821Z,12.10
2022-11-03T19:52:35.072Z,12.10
2022-11-03T19:55:23.631Z,12.10
2022-11-03T19:58:14.263Z,12.10
2022-11-03T20:01:08.374Z,12.10
2022-11-03T20:03:58.372Z,12.10
2022-11-03T20:06:46.134Z,12.10
2022-11-03T20:09:34.428Z,12.10
2022-11-03T20:12:22.141Z,12.10
2022-11-03T20:15:17.432Z,12.10
2022-11-03T20:18:07.457Z,12.10
2022-11-03T20:20:55.492Z,12.10
2022-11-03T20:23:43.379Z,12.10
2022-11-03T20:26:31.352Z,12.10
2022-11-03T20:29:19.109Z,12.10
2022-11-03T20:32:07.365Z,12.00
2022-11-03T20:34:56.451Z,12.00
2022-11-03T20:37:45.168Z,12.00
2022-11-03T20:40:33.340Z,12.00
2022-11-03T20:43:26.564Z,12.10
2022-11-03T20:46:20.198Z,12.00
2022-11-03T20:49:11.022Z,12.00
2022-11-03T20:52:00.097Z,11.90
2022-11-03T20:54:47.841Z,12.00
2022-11-03T20:57:35.534Z,11.90
2022-11-03T21:00:24.896Z,11.90
2022-11-03T21:03:37.360Z,11.90
2022-11-03T21:06:24.151Z,11.90
2022-11-03T21:09:14.839Z,11.90
2022-11-03T21:12:02.574Z,11.80
2022-11-03T21:15:07.627Z,11.80
2022-11-03T21:18:13.197Z,11.80
2022-11-03T21:21:01.250Z,11.80
2022-11-03T21:23:48.973Z,11.80
2022-11-03T21:26:39.969Z,11.80
2022-11-03T21:29:45.669Z,11.80
2022-11-03T21:32:35.449Z,11.80
2022-11-03T21:35:23.351Z,11.80
2022-11-03T21:38:11.427Z,11.70
2022-11-03T21:41:20.243Z,11.80
2022-11-03T21:44:17.393Z,11.80
2022-11-03T21:47:05.126Z,11.80
2022-11-03T21:49:52.118Z,11.80
2022-11-03T21:52:39.870Z,11.80
2022-11-03T21:55:28.859Z,11.90
2022-11-03T21:58:16.578Z,11.80
2022-11-03T22:01:05.965Z,11.90
2022-11-03T22:03:53.798Z,11.80
2022-11-03T22:06:41.631Z,11.80
2022-11-03T22:09:29.558Z,11.90
2022-11-03T22:12:17.414Z,11.90
2022-11-03T22:15:22.757Z,11.90
2022-11-03T22:18:12.314Z,11.90
2022-11-03T22:21:17.978Z,12.00
2022-11-03T22:24:23.293Z,11.90
2022-11-03T22:27:11.161Z,12.00
2022-11-03T22:30:16.428Z,12.00
2022-11-03T22:33:04.181Z,12.00
2022-11-03T22:36:10.999Z,12.00
2022-11-03T22:39:16.518Z,12.00
2022-11-03T22:42:21.914Z,12.00
2022-11-03T22:45:27.449Z,12.00
2022-11-03T22:48:15.230Z,12.00
2022-11-03T22:51:05.531Z,12.00
2022-11-03T22:54:11.860Z,12.00
2022-11-03T22:56:59.566Z,12.00
2022-11-03T22:59:47.424Z,12.00
2022-11-03T23:02:35.158Z,12.00
2022-11-03T23:05:22.907Z,12.00
2022-11-03T23:08:11.987Z,12.10
2022-11-03T23:11:10.177Z,12.00
2022-11-03T23:13:58.711Z,12.10
2022-11-03T23:16:46.426Z,12.10
2022-11-03T23:19:51.966Z,12.00
2022-11-03T23:22:39.670Z,12.00
2022-11-03T23:25:27.735Z,12.10
2022-11-03T23:28:15.474Z,12.10
2022-11-03T23:31:03.207Z,12.10
2022-11-03T23:33:51.035Z,12.10
2022-11-03T23:36:38.826Z,12.00
2022-11-03T23:39:26.645Z,12.00
2022-11-03T23:42:15.846Z,12.00
2022-11-03T23:45:21.262Z,12.00
2022-11-03T23:48:26.624Z,12.00
2022-11-03T23:51:14.955Z,12.10
2022-11-03T23:54:03.093Z,12.10
2022-11-03T23:57:08.617Z,12.00
2022-11-03T23:59:57.674Z,12.00
